Wetterdaten: Freitag, 03.05.2013
Datum Zeit Temperatur Luftfeuchte Luftdruck Regen Wind Richtung Richtung Taupunkt Windchill Windben
03.05.2013 00:00 10,5 C 93 % 1017,6 hPa 0,0 l/m 3,2 km/h (1 Bft) W-SW 247 9,4 C 10,6 C 5,8 km/h (2 Bft)
03.05.2013 00:05 10,4 C 93 % 1017,7 hPa 0,0 l/m 3,7 km/h (1 Bft) W-SW 247 9,3 C 10,5 C 3,9 km/h (1 Bft)
03.05.2013 00:10 10,3 C 93 % 1017,7 hPa 0,0 l/m 3,5 km/h (1 Bft) S-SW 202 9,2 C 10,3 C 1,8 km/h (1 Bft)
03.05.2013 00:15 10,2 C 93 % 1017,7 hPa 0,0 l/m 2,7 km/h (1 Bft) S 180 9,1 C 10,3 C 1,8 km/h (1 Bft)
03.05.2013 00:20 10,2 C 93 % 1017,7 hPa 0,0 l/m 1,6 km/h (1 Bft) SW 225 9,1 C 10,1 C 1,6 km/h (1 Bft)
03.05.2013 00:25 10,2 C 93 % 1017,6 hPa 0,0 l/m 1,8 km/h (1 Bft) S 180 9,1 C 10,1 C 2,7 km/h (1 Bft)
03.05.2013 00:30 10,2 C 93 % 1017,6 hPa 0,0 l/m 1,8 km/h (1 Bft) S 180 9,1 C 10,1 C 5,0 km/h (1 Bft)
03.05.2013 00:35 10,1 C 93 % 1017,6 hPa 0,0 l/m 2,4 km/h (1 Bft) S-SW 202 9,0 C 10,0 C 5,1 km/h (1 Bft)
03.05.2013 00:40 10,0 C 93 % 1017,6 hPa 0,0 l/m 4,3 km/h (1 Bft) SW 225 8,9 C 9,8 C 5,8 km/h (2 Bft)
03.05.2013 00:45 9,9 C 93 % 1017,8 hPa 0,0 l/m 4,5 km/h (1 Bft) S 180 8,8 C 9,7 C 7,9 km/h (2 Bft)
03.05.2013 00:50 9,9 C 93 % 1017,8 hPa 0,0 l/m 3,9 km/h (1 Bft) S 180 8,8 C 9,7 C 4,3 km/h (1 Bft)
03.05.2013 00:55 9,8 C 93 % 1017,8 hPa 0,0 l/m 3,2 km/h (1 Bft) SW 225 8,7 C 9,7 C 4,3 km/h (1 Bft)
03.05.2013 01:00 9,8 C 93 % 1017,8 hPa 0,0 l/m 2,3 km/h (1 Bft) S 180 8,7 C 9,6 C 0,0 km/h (0 Bft)
03.05.2013 01:05 9,8 C 93 % 1017,8 hPa 0,0 l/m 1,8 km/h (1 Bft) S 180 8,7 C 9,6 C 3,2 km/h (1 Bft)
03.05.2013 01:10 9,7 C 94 % 1017,8 hPa 0,0 l/m 2,4 km/h (1 Bft) S-SO 157 8,8 C 9,6 C 3,1 km/h (1 Bft)
03.05.2013 01:15 9,7 C 94 % 1017,8 hPa 0,0 l/m 3,4 km/h (1 Bft) S 180 8,8 C 9,6 C 4,8 km/h (1 Bft)
03.05.2013 01:20 9,6 C 94 % 1017,8 hPa 0,0 l/m 2,9 km/h (1 Bft) S-SW 202 8,7 C 9,5 C 2,6 km/h (1 Bft)
03.05.2013 01:25 9,6 C 94 % 1017,8 hPa 0,0 l/m 2,9 km/h (1 Bft) W 270 8,7 C 9,5 C 2,9 km/h (1 Bft)
03.05.2013 01:30 9,5 C 94 % 1017,8 hPa 0,0 l/m 3,1 km/h (1 Bft) S-SW 202 8,6 C 9,4 C 2,7 km/h (1 Bft)
03.05.2013 01:35 9,5 C 94 % 1017,8 hPa 0,0 l/m 3,1 km/h (1 Bft) S-SW 202 8,6 C 9,4 C 3,4 km/h (1 Bft)
03.05.2013 01:40 9,4 C 94 % 1017,8 hPa 0,0 l/m 3,1 km/h (1 Bft) S-SO 157 8,5 C 9,3 C 3,2 km/h (1 Bft)
03.05.2013 01:45 9,4 C 94 % 1017,5 hPa 0,0 l/m 2,6 km/h (1 Bft) W-NW 292 8,5 C 9,3 C 0,0 km/h (0 Bft)
03.05.2013 01:50 9,4 C 94 % 1017,5 hPa 0,0 l/m 1,9 km/h (1 Bft) S 180 8,5 C 9,3 C 1,9 km/h (1 Bft)
03.05.2013 01:55 9,4 C 94 % 1017,5 hPa 0,0 l/m 1,6 km/h (1 Bft) S-SW 202 8,5 C 9,3 C 2,3 km/h (1 Bft)
03.05.2013 02:00 9,4 C 94 % 1017,5 hPa 0,0 l/m 1,9 km/h (1 Bft) S 180 8,5 C 9,3 C 2,3 km/h (1 Bft)
03.05.2013 02:05 9,3 C 94 % 1017,4 hPa 0,7 l/m 1,8 km/h (1 Bft) S 180 8,4 C 9,3 C 0,0 km/h (0 Bft)
03.05.2013 02:10 9,3 C 94 % 1017,4 hPa 0,0 l/m 3,1 km/h (1 Bft) S-SW 202 8,4 C 9,3 C 8,9 km/h (2 Bft)
03.05.2013 02:15 9,3 C 94 % 1017,4 hPa 0,0 l/m 4,2 km/h (1 Bft) S 180 8,4 C 9,2 C 6,1 km/h (2 Bft)
03.05.2013 02:20 9,3 C 94 % 1017,4 hPa 0,0 l/m 5,8 km/h (2 Bft) S-SO 157 8,4 C 8,6 C 5,8 km/h (2 Bft)
03.05.2013 02:25 9,3 C 94 % 1017,4 hPa 0,0 l/m 6,4 km/h (2 Bft) S 180 8,4 C 8,3 C 10,5 km/h (2 Bft)
03.05.2013 02:30 9,2 C 94 % 1017,4 hPa 0,7 l/m 6,8 km/h (2 Bft) SO 135 8,3 C 7,9 C 8,7 km/h (2 Bft)
03.05.2013 02:35 9,2 C 94 % 1017,4 hPa 0,0 l/m 6,4 km/h (2 Bft) S-SO 157 8,3 C 8,2 C 14,0 km/h (3 Bft)
03.05.2013 02:40 9,1 C 94 % 1017,4 hPa 0,7 l/m 5,8 km/h (2 Bft) S 180 8,2 C 8,4 C 2,1 km/h (1 Bft)
03.05.2013 02:45 9,1 C 94 % 1017,2 hPa 0,0 l/m 3,4 km/h (1 Bft) W 270 8,2 C 9,0 C 3,9 km/h (1 Bft)
03.05.2013 02:50 9,1 C 94 % 1017,2 hPa 0,0 l/m 0,8 km/h (0 Bft) SO 135 8,2 C 9,0 C 1,8 km/h (1 Bft)
03.05.2013 02:55 9,1 C 94 % 1017,2 hPa 0,0 l/m 1,0 km/h (0 Bft) NO 45 8,2 C 9,0 C 0,0 km/h (0 Bft)
03.05.2013 03:00 9,0 C 94 % 1017,2 hPa 0,0 l/m 1,1 km/h (1 Bft) O-SO 112 8,1 C 9,0 C 2,4 km/h (1 Bft)
03.05.2013 03:05 9,0 C 94 % 1016,9 hPa 0,0 l/m 1,0 km/h (0 Bft) O-SO 112 8,1 C 9,0 C 1,8 km/h (1 Bft)
03.05.2013 03:10 9,0 C 94 % 1016,9 hPa 0,7 l/m 1,6 km/h (1 Bft) SO 135 8,1 C 9,0 C 0,0 km/h (0 Bft)
03.05.2013 03:15 9,0 C 94 % 1016,9 hPa 0,0 l/m 1,3 km/h (1 Bft) S 180 8,1 C 9,0 C 0,0 km/h (0 Bft)
03.05.2013 03:20 9,0 C 95 % 1016,9 hPa 0,0 l/m 0,3 km/h (0 Bft) SO 135 8,2 C 9,0 C 0,0 km/h (0 Bft)
03.05.2013 03:25 9,0 C 95 % 1016,8 hPa 0,0 l/m 0,0 km/h (0 Bft) N-NO 22 8,2 C 9,0 C 0,0 km/h (0 Bft)
03.05.2013 03:30 9,0 C 95 % 1016,8 hPa 0,0 l/m 0,2 km/h (0 Bft) NO 45 8,2 C 9,0 C 0,0 km/h (0 Bft)
03.05.2013 03:35 9,0 C 95 % 1016,8 hPa 0,0 l/m 0,2 km/h (0 Bft) O-NO 67 8,2 C 9,0 C 0,0 km/h (0 Bft)
03.05.2013 03:40 9,0 C 95 % 1016,8 hPa 0,0 l/m 0,0 km/h (0 Bft) O-NO 67 8,2 C 8,9 C 0,0 km/h (0 Bft)
03.05.2013 03:45 8,9 C 95 % 1016,8 hPa 0,0 l/m 0,0 km/h (0 Bft) NO 45 8,1 C 8,9 C 0,0 km/h (0 Bft)
03.05.2013 03:50 8,9 C 95 % 1016,8 hPa 0,0 l/m 0,0 km/h (0 Bft) O 90 8,1 C 8,9 C 0,0 km/h (0 Bft)
03.05.2013 03:55 8,9 C 95 % 1016,8 hPa 0,0 l/m 0,0 km/h (0 Bft) O-NO 67 8,1 C 8,9 C 1,6 km/h (1 Bft)
03.05.2013 04:00 8,9 C 95 % 1016,8 hPa 0,0 l/m 0,5 km/h (0 Bft) O 90 8,1 C 8,9 C 0,0 km/h (0 Bft)
03.05.2013 04:05 8,9 C 95 % 1016,4 hPa 0,0 l/m 0,5 km/h (0 Bft) N-NO 22 8,1 C 8,9 C 0,0 km/h (0 Bft)
03.05.2013 04:10 8,9 C 95 % 1016,4 hPa 0,0 l/m 0,3 km/h (0 Bft) NO 45 8,1 C 8,9 C 1,6 km/h (1 Bft)
03.05.2013 04:15 8,9 C 95 % 1016,4 hPa 0,0 l/m 0,5 km/h (0 Bft) NO 45 8,1 C 8,9 C 0,0 km/h (0 Bft)
03.05.2013 04:20 8,9 C 95 % 1016,4 hPa 0,0 l/m 1,0 km/h (0 Bft) N-NW 337 8,1 C 8,8 C 1,8 km/h (1 Bft)
03.05.2013 04:25 8,8 C 95 % 1016,2 hPa 0,0 l/m 1,1 km/h (1 Bft) N-NO 22 8,0 C 8,8 C 2,3 km/h (1 Bft)
03.05.2013 04:30 8,7 C 95 % 1016,2 hPa 0,0 l/m 1,0 km/h (0 Bft) N 360 7,9 C 8,7 C 0,0 km/h (0 Bft)
03.05.2013 04:35 8,7 C 95 % 1016,2 hPa 0,0 l/m 1,0 km/h (0 Bft) O 90 7,9 C 8,7 C 0,0 km/h (0 Bft)
03.05.2013 04:40 8,7 C 95 % 1016,2 hPa 0,0 l/m 0,5 km/h (0 Bft) N-NO 22 7,9 C 8,7 C 0,0 km/h (0 Bft)
03.05.2013 04:45 8,7 C 95 % 1016,1 hPa 0,0 l/m 0,2 km/h (0 Bft) O 90 7,9 C 8,7 C 1,8 km/h (1 Bft)
03.05.2013 04:50 8,8 C 95 % 1016,1 hPa 0,0 l/m 0,2 km/h (0 Bft) N-NO 22 8,0 C 8,7 C 0,0 km/h (0 Bft)
03.05.2013 04:55 8,8 C 95 % 1016,1 hPa 0,0 l/m 0,2 km/h (0 Bft) O 90 8,0 C 8,8 C 0,0 km/h (0 Bft)
03.05.2013 05:00 8,9 C 95 % 1016,1 hPa 0,0 l/m 0,0 km/h (0 Bft) N 360 8,1 C 8,8 C 0,0 km/h (0 Bft)
03.05.2013 05:05 8,9 C 95 % 1015,9 hPa 0,0 l/m 0,0 km/h (0 Bft) N-NO 22 8,1 C 8,8 C 0,0 km/h (0 Bft)
03.05.2013 05:10 8,9 C 95 % 1015,9 hPa 0,0 l/m 0,5 km/h (0 Bft) W-NW 292 8,1 C 8,9 C 2,3 km/h (1 Bft)
03.05.2013 05:15 9,0 C 95 % 1015,9 hPa 0,0 l/m 1,0 km/h (0 Bft) W-NW 292 8,2 C 9,0 C 3,9 km/h (1 Bft)
03.05.2013 05:20 8,9 C 95 % 1015,9 hPa 0,0 l/m 1,4 km/h (1 Bft) N 360 8,1 C 9,0 C 3,2 km/h (1 Bft)
03.05.2013 05:25 8,9 C 95 % 1015,6 hPa 0,0 l/m 1,6 km/h (1 Bft) SO 135 8,1 C 8,9 C 0,0 km/h (0 Bft)
03.05.2013 05:30 8,9 C 95 % 1015,6 hPa 0,0 l/m 1,1 km/h (1 Bft) N-NO 22 8,1 C 8,9 C 0,0 km/h (0 Bft)
03.05.2013 05:35 8,9 C 95 % 1015,6 hPa 0,0 l/m 0,6 km/h (0 Bft) N-NW 337 8,1 C 8,9 C 3,5 km/h (1 Bft)
03.05.2013 05:40 8,9 C 95 % 1015,6 hPa 0,0 l/m 1,6 km/h (1 Bft) NO 45 8,1 C 8,9 C 0,0 km/h (0 Bft)
03.05.2013 05:45 8,8 C 96 % 1015,6 hPa 0,0 l/m 1,8 km/h (1 Bft) N-NW 337 8,2 C 8,9 C 3,1 km/h (1 Bft)
03.05.2013 05:50 8,8 C 95 % 1015,6 hPa 0,0 l/m 1,3 km/h (1 Bft) W-NW 292 8,0 C 8,8 C 2,3 km/h (1 Bft)
03.05.2013 05:55 8,8 C 96 % 1015,6 hPa 0,0 l/m 2,3 km/h (1 Bft) N-NO 22 8,2 C 8,9 C 3,2 km/h (1 Bft)
03.05.2013 06:00 8,8 C 96 % 1015,6 hPa 0,0 l/m 2,3 km/h (1 Bft) N-NW 337 8,2 C 8,9 C 3,1 km/h (1 Bft)
03.05.2013 06:05 8,9 C 96 % 1015,7 hPa 0,0 l/m 2,4 km/h (1 Bft) W-NW 292 8,3 C 8,9 C 3,5 km/h (1 Bft)
03.05.2013 06:10 8,9 C 95 % 1015,7 hPa 0,0 l/m 2,1 km/h (1 Bft) W-NW 292 8,1 C 8,9 C 3,4 km/h (1 Bft)
03.05.2013 06:15 8,9 C 96 % 1015,7 hPa 0,0 l/m 1,9 km/h (1 Bft) W-NW 292 8,3 C 9,0 C 2,6 km/h (1 Bft)
03.05.2013 06:20 8,9 C 96 % 1015,7 hPa 0,0 l/m 3,1 km/h (1 Bft) NW 315 8,3 C 9,0 C 3,4 km/h (1 Bft)
03.05.2013 06:25 9,0 C 95 % 1015,7 hPa 0,0 l/m 2,7 km/h (1 Bft) N-NO 22 8,2 C 9,0 C 1,8 km/h (1 Bft)
03.05.2013 06:30 9,0 C 95 % 1015,7 hPa 0,0 l/m 2,3 km/h (1 Bft) NW 315 8,2 C 9,0 C 2,9 km/h (1 Bft)
03.05.2013 06:35 9,0 C 95 % 1015,7 hPa 0,0 l/m 1,9 km/h (1 Bft) N 360 8,2 C 9,0 C 1,8 km/h (1 Bft)
03.05.2013 06:40 9,0 C 95 % 1015,7 hPa 0,0 l/m 2,6 km/h (1 Bft) N 360 8,2 C 9,1 C 5,8 km/h (2 Bft)
03.05.2013 06:45 9,0 C 95 % 1016,1 hPa 0,0 l/m 2,6 km/h (1 Bft) N-NW 337 8,2 C 9,1 C 3,2 km/h (1 Bft)
03.05.2013 06:50 9,1 C 95 % 1016,1 hPa 0,0 l/m 1,8 km/h (1 Bft) S-SW 202 8,3 C 9,2 C 0,0 km/h (0 Bft)
03.05.2013 06:55 9,1 C 95 % 1016,1 hPa 0,0 l/m 1,9 km/h (1 Bft) W-NW 292 8,3 C 9,3 C 4,0 km/h (1 Bft)
03.05.2013 07:00 9,1 C 95 % 1016,1 hPa 0,0 l/m 2,6 km/h (1 Bft) W-NW 292 8,3 C 9,3 C 5,0 km/h (1 Bft)
03.05.2013 07:05 9,1 C 95 % 1016,2 hPa 0,0 l/m 2,7 km/h (1 Bft) NO 45 8,3 C 9,3 C 1,8 km/h (1 Bft)
03.05.2013 07:10 9,0 C 95 % 1016,2 hPa 0,0 l/m 2,6 km/h (1 Bft) W 270 8,2 C 9,3 C 2,3 km/h (1 Bft)
03.05.2013 07:15 9,1 C 95 % 1016,2 hPa 0,0 l/m 2,1 km/h (1 Bft) N-NW 337 8,3 C 9,3 C 3,1 km/h (1 Bft)
03.05.2013 07:20 9,1 C 95 % 1016,2 hPa 0,0 l/m 1,9 km/h (1 Bft) N-NO 22 8,3 C 9,3 C 3,2 km/h (1 Bft)
03.05.2013 07:25 9,2 C 95 % 1016,4 hPa 0,0 l/m 2,1 km/h (1 Bft) W 270 8,4 C 9,3 C 4,0 km/h (1 Bft)
03.05.2013 07:30 9,2 C 95 % 1016,4 hPa 0,0 l/m 2,6 km/h (1 Bft) N-NW 337 8,4 C 9,4 C 3,9 km/h (1 Bft)
03.05.2013 07:35 9,2 C 95 % 1016,4 hPa 0,0 l/m 2,6 km/h (1 Bft) N 360 8,4 C 9,4 C 0,0 km/h (0 Bft)
03.05.2013 07:40 9,2 C 95 % 1016,4 hPa 0,0 l/m 2,6 km/h (1 Bft) N-NW 337 8,4 C 9,4 C 3,7 km/h (1 Bft)
03.05.2013 07:45 9,2 C 95 % 1016,2 hPa 0,0 l/m 3,1 km/h (1 Bft) NW 315 8,4 C 9,4 C 6,0 km/h (2 Bft)
03.05.2013 07:50 9,2 C 95 % 1016,2 hPa 0,0 l/m 3,9 km/h (1 Bft) N 360 8,4 C 9,4 C 2,6 km/h (1 Bft)
03.05.2013 07:55 9,2 C 95 % 1016,2 hPa 0,0 l/m 4,0 km/h (1 Bft) N-NW 337 8,4 C 9,4 C 5,3 km/h (1 Bft)
03.05.2013 08:00 9,1 C 95 % 1016,2 hPa 0,0 l/m 3,9 km/h (1 Bft) W-NW 292 8,3 C 9,4 C 2,3 km/h (1 Bft)
03.05.2013 08:05 9,1 C 95 % 1016,3 hPa 0,0 l/m 3,2 km/h (1 Bft) N-NO 22 8,3 C 9,3 C 3,4 km/h (1 Bft)
03.05.2013 08:10 9,2 C 95 % 1016,3 hPa 0,0 l/m 2,9 km/h (1 Bft) N-NO 22 8,4 C 9,4 C 2,3 km/h (1 Bft)
03.05.2013 08:15 9,4 C 95 % 1016,3 hPa 0,0 l/m 2,9 km/h (1 Bft) NO 45 8,6 C 9,6 C 5,1 km/h (1 Bft)
03.05.2013 08:20 9,5 C 95 % 1016,3 hPa 0,0 l/m 2,7 km/h (1 Bft) N 360 8,7 C 9,9 C 2,9 km/h (1 Bft)
03.05.2013 08:25 9,6 C 95 % 1016,5 hPa 0,0 l/m 2,6 km/h (1 Bft) N 360 8,8 C 10,1 C 1,9 km/h (1 Bft)
03.05.2013 08:30 10,1 C 95 % 1016,5 hPa 0,0 l/m 1,3 km/h (1 Bft) NW 315 9,3 C 10,6 C 4,0 km/h (1 Bft)
03.05.2013 08:35 10,2 C 95 % 1016,5 hPa 0,0 l/m 1,8 km/h (1 Bft) W-NW 292 9,4 C 10,8 C 6,0 km/h (2 Bft)
03.05.2013 08:40 10,6 C 95 % 1016,5 hPa 0,0 l/m 2,9 km/h (1 Bft) N-NO 22 9,8 C 11,0 C 3,7 km/h (1 Bft)
03.05.2013 08:45 10,5 C 95 % 1016,4 hPa 0,0 l/m 3,4 km/h (1 Bft) W-NW 292 9,7 C 11,3 C 7,2 km/h (2 Bft)
03.05.2013 08:50 10,8 C 94 % 1016,4 hPa 0,0 l/m 3,4 km/h (1 Bft) W-NW 292 9,9 C 11,6 C 2,7 km/h (1 Bft)
03.05.2013 08:55 10,8 C 94 % 1016,4 hPa 0,0 l/m 3,4 km/h (1 Bft) W-SW 247 9,9 C 11,8 C 2,9 km/h (1 Bft)
03.05.2013 09:00 10,6 C 94 % 1016,4 hPa 0,0 l/m 3,5 km/h (1 Bft) N-NO 22 9,7 C 11,8 C 4,8 km/h (1 Bft)
03.05.2013 09:05 10,8 C 93 % 1016,5 hPa 0,0 l/m 2,9 km/h (1 Bft) O 90 9,7 C 11,9 C 2,6 km/h (1 Bft)
03.05.2013 09:10 11,0 C 93 % 1016,5 hPa 0,0 l/m 3,1 km/h (1 Bft) W-NW 292 9,9 C 12,0 C 5,5 km/h (1 Bft)
03.05.2013 09:15 10,9 C 93 % 1016,5 hPa 0,0 l/m 3,5 km/h (1 Bft) W-NW 292 9,8 C 12,0 C 3,1 km/h (1 Bft)
03.05.2013 09:20 11,1 C 92 % 1016,5 hPa 0,0 l/m 4,0 km/h (1 Bft) NO 45 9,8 C 12,2 C 7,9 km/h (2 Bft)
03.05.2013 09:25 11,0 C 91 % 1016,3 hPa 0,0 l/m 3,5 km/h (1 Bft) W 270 9,6 C 12,2 C 1,6 km/h (1 Bft)
03.05.2013 09:30 11,1 C 91 % 1016,3 hPa 0,0 l/m 3,4 km/h (1 Bft) N 360 9,7 C 12,3 C 5,5 km/h (1 Bft)
03.05.2013 09:35 11,1 C 90 % 1016,3 hPa 0,0 l/m 3,9 km/h (1 Bft) W 270 9,5 C 12,2 C 5,0 km/h (1 Bft)
03.05.2013 09:40 11,5 C 89 % 1016,3 hPa 0,0 l/m 4,8 km/h (1 Bft) N-NW 337 9,8 C 12,4 C 3,2 km/h (1 Bft)
03.05.2013 09:45 11,8 C 88 % 1016,4 hPa 0,0 l/m 4,2 km/h (1 Bft) W-NW 292 9,9 C 12,9 C 6,3 km/h (2 Bft)
03.05.2013 09:50 11,8 C 87 % 1016,4 hPa 0,0 l/m 4,5 km/h (1 Bft) N-NO 22 9,7 C 13,0 C 6,1 km/h (2 Bft)
03.05.2013 09:55 12,1 C 87 % 1016,4 hPa 0,0 l/m 4,3 km/h (1 Bft) W-NW 292 10,0 C 13,2 C 2,6 km/h (1 Bft)
03.05.2013 10:00 11,9 C 85 % 1016,4 hPa 0,0 l/m 4,0 km/h (1 Bft) NO 45 9,5 C 13,5 C 5,8 km/h (2 Bft)
03.05.2013 10:05 12,4 C 86 % 1016,5 hPa 0,0 l/m 4,0 km/h (1 Bft) W 270 10,1 C 13,9 C 5,0 km/h (1 Bft)
03.05.2013 10:10 12,6 C 85 % 1016,5 hPa 0,0 l/m 4,5 km/h (1 Bft) N-NW 337 10,1 C 14,1 C 3,1 km/h (1 Bft)
03.05.2013 10:15 12,7 C 84 % 1016,5 hPa 0,0 l/m 5,1 km/h (1 Bft) N-NW 337 10,1 C 14,3 C 6,6 km/h (2 Bft)
03.05.2013 10:20 12,6 C 84 % 1016,5 hPa 0,0 l/m 4,7 km/h (1 Bft) N 360 10,0 C 14,2 C 3,9 km/h (1 Bft)
03.05.2013 10:25 12,4 C 83 % 1016,7 hPa 0,0 l/m 5,1 km/h (1 Bft) W-NW 292 9,6 C 14,2 C 9,2 km/h (2 Bft)
03.05.2013 10:30 12,3 C 84 % 1016,7 hPa 0,0 l/m 5,5 km/h (1 Bft) W-SW 247 9,7 C 13,9 C 6,4 km/h (2 Bft)
03.05.2013 10:35 12,6 C 84 % 1016,7 hPa 0,0 l/m 6,4 km/h (2 Bft) NW 315 10,0 C 13,7 C 9,8 km/h (2 Bft)
03.05.2013 10:40 12,8 C 84 % 1016,7 hPa 0,0 l/m 5,8 km/h (2 Bft) N 360 10,2 C 13,9 C 4,5 km/h (1 Bft)
03.05.2013 10:45 12,5 C 82 % 1016,6 hPa 0,0 l/m 5,3 km/h (1 Bft) N-NW 337 9,5 C 14,0 C 3,5 km/h (1 Bft)
03.05.2013 10:50 12,9 C 83 % 1016,6 hPa 0,0 l/m 5,0 km/h (1 Bft) NW 315 10,1 C 14,1 C 6,6 km/h (2 Bft)
03.05.2013 10:55 13,4 C 84 % 1016,6 hPa 0,0 l/m 4,2 km/h (1 Bft) N-NW 337 10,8 C 14,6 C 7,1 km/h (2 Bft)
03.05.2013 11:00 13,5 C 81 % 1016,6 hPa 0,0 l/m 4,5 km/h (1 Bft) W-NW 292 10,3 C 14,9 C 9,8 km/h (2 Bft)
03.05.2013 11:05 13,9 C 82 % 1016,8 hPa 0,0 l/m 5,1 km/h (1 Bft) NW 315 10,9 C 15,0 C 6,1 km/h (2 Bft)
03.05.2013 11:10 14,6 C 74 % 1016,8 hPa 0,0 l/m 5,6 km/h (1 Bft) N 360 10,0 C 15,6 C 5,8 km/h (2 Bft)
03.05.2013 11:15 14,2 C 77 % 1016,8 hPa 0,0 l/m 5,5 km/h (1 Bft) N-NW 337 10,2 C 16,0 C 5,0 km/h (1 Bft)
03.05.2013 11:20 14,4 C 75 % 1016,8 hPa 0,0 l/m 5,3 km/h (1 Bft) W 270 10,0 C 16,4 C 7,7 km/h (2 Bft)
03.05.2013 11:25 14,3 C 78 % 1016,8 hPa 0,0 l/m 5,1 km/h (1 Bft) W-NW 292 10,5 C 16,1 C 3,5 km/h (1 Bft)
03.05.2013 11:30 14,2 C 78 % 1016,8 hPa 0,0 l/m 4,3 km/h (1 Bft) N 360 10,4 C 16,2 C 7,1 km/h (2 Bft)
03.05.2013 11:35 14,6 C 75 % 1016,8 hPa 0,0 l/m 4,3 km/h (1 Bft) W-SW 247 10,2 C 16,2 C 3,7 km/h (1 Bft)
03.05.2013 11:40 14,8 C 76 % 1016,8 hPa 0,0 l/m 4,0 km/h (1 Bft) N 360 10,6 C 16,7 C 5,1 km/h (1 Bft)
03.05.2013 11:45 14,6 C 75 % 1016,8 hPa 0,0 l/m 3,5 km/h (1 Bft) W-NW 292 10,2 C 16,8 C 6,0 km/h (2 Bft)
03.05.2013 11:50 15,4 C 76 % 1016,8 hPa 0,0 l/m 4,7 km/h (1 Bft) N-NW 337 11,2 C 17,2 C 9,5 km/h (2 Bft)
03.05.2013 11:55 15,7 C 74 % 1016,8 hPa 0,0 l/m 5,1 km/h (1 Bft) N-NW 337 11,1 C 17,7 C 6,8 km/h (2 Bft)
03.05.2013 12:00 15,4 C 75 % 1016,8 hPa 0,0 l/m 5,0 km/h (1 Bft) W 270 11,0 C 17,6 C 5,1 km/h (1 Bft)
03.05.2013 12:05 15,2 C 73 % 1016,7 hPa 0,0 l/m 4,7 km/h (1 Bft) N-NW 337 10,4 C 17,6 C 7,6 km/h (2 Bft)
03.05.2013 12:10 15,9 C 69 % 1016,7 hPa 0,0 l/m 6,4 km/h (2 Bft) W-NW 292 10,2 C 17,5 C 6,4 km/h (2 Bft)
03.05.2013 12:15 15,6 C 70 % 1016,7 hPa 0,0 l/m 6,9 km/h (2 Bft) NO 45 10,1 C 17,3 C 7,7 km/h (2 Bft)
03.05.2013 12:20 15,0 C 73 % 1016,7 hPa 0,0 l/m 5,8 km/h (2 Bft) N-NW 337 10,2 C 17,4 C 5,6 km/h (1 Bft)
03.05.2013 12:25 14,6 C 74 % 1016,8 hPa 0,0 l/m 4,8 km/h (1 Bft) N-NW 337 10,0 C 17,2 C 5,3 km/h (1 Bft)
03.05.2013 12:30 14,7 C 75 % 1016,8 hPa 0,0 l/m 5,3 km/h (1 Bft) W-SW 247 10,3 C 16,5 C 6,1 km/h (2 Bft)
03.05.2013 12:35 15,4 C 74 % 1016,8 hPa 0,0 l/m 6,0 km/h (2 Bft) W-NW 292 10,8 C 16,5 C 4,3 km/h (1 Bft)
03.05.2013 12:40 15,3 C 72 % 1016,8 hPa 0,0 l/m 6,8 km/h (2 Bft) W 270 10,3 C 16,5 C 10,8 km/h (2 Bft)
03.05.2013 12:45 15,2 C 73 % 1016,6 hPa 0,0 l/m 6,8 km/h (2 Bft) W-NW 292 10,4 C 16,3 C 8,5 km/h (2 Bft)
03.05.2013 12:50 15,5 C 73 % 1016,6 hPa 0,0 l/m 6,1 km/h (2 Bft) W-NW 292 10,7 C 16,6 C 6,1 km/h (2 Bft)
03.05.2013 12:55 15,4 C 72 % 1016,6 hPa 0,0 l/m 5,6 km/h (1 Bft) NW 315 10,4 C 17,1 C 6,1 km/h (2 Bft)
03.05.2013 13:00 15,5 C 73 % 1016,6 hPa 0,0 l/m 5,3 km/h (1 Bft) NO 45 10,7 C 17,2 C 8,0 km/h (2 Bft)
03.05.2013 13:05 15,7 C 73 % 1016,4 hPa 0,0 l/m 5,3 km/h (1 Bft) W-NW 292 10,9 C 17,0 C 5,5 km/h (1 Bft)
03.05.2013 13:10 15,9 C 73 % 1016,4 hPa 0,0 l/m 5,5 km/h (1 Bft) W-SW 247 11,1 C 17,1 C 8,0 km/h (2 Bft)
03.05.2013 13:15 15,8 C 73 % 1016,4 hPa 0,0 l/m 6,0 km/h (2 Bft) W-SW 247 11,0 C 16,9 C 5,5 km/h (1 Bft)
03.05.2013 13:20 16,0 C 71 % 1016,4 hPa 0,0 l/m 5,1 km/h (1 Bft) W-NW 292 10,7 C 17,4 C 6,4 km/h (2 Bft)
03.05.2013 13:25 15,7 C 74 % 1016,0 hPa 0,0 l/m 4,2 km/h (1 Bft) N-NW 337 11,1 C 17,5 C 7,2 km/h (2 Bft)
03.05.2013 13:30 15,5 C 75 % 1016,0 hPa 0,0 l/m 4,8 km/h (1 Bft) N-NW 337 11,1 C 17,3 C 7,1 km/h (2 Bft)
03.05.2013 13:35 15,6 C 74 % 1016,0 hPa 0,0 l/m 4,7 km/h (1 Bft) N 360 11,0 C 17,3 C 4,7 km/h (1 Bft)
03.05.2013 13:40 15,8 C 75 % 1016,0 hPa 0,0 l/m 4,5 km/h (1 Bft) W-NW 292 11,4 C 17,2 C 4,3 km/h (1 Bft)
03.05.2013 13:45 16,1 C 73 % 1015,9 hPa 0,0 l/m 4,7 km/h (1 Bft) NO 45 11,3 C 17,4 C 4,8 km/h (1 Bft)
03.05.2013 13:50 15,9 C 72 % 1015,9 hPa 0,0 l/m 4,8 km/h (1 Bft) NW 315 10,9 C 17,6 C 3,7 km/h (1 Bft)
03.05.2013 13:55 15,9 C 74 % 1015,9 hPa 0,0 l/m 5,0 km/h (1 Bft) W-NW 292 11,3 C 17,6 C 7,2 km/h (2 Bft)
03.05.2013 14:00 15,9 C 73 % 1015,9 hPa 0,0 l/m 5,6 km/h (1 Bft) N 360 11,1 C 17,5 C 6,8 km/h (2 Bft)
03.05.2013 14:05 15,6 C 73 % 1015,8 hPa 0,0 l/m 6,0 km/h (2 Bft) N 360 10,8 C 17,3 C 5,3 km/h (1 Bft)
03.05.2013 14:10 15,6 C 73 % 1015,8 hPa 0,0 l/m 4,8 km/h (1 Bft) S-SO 157 10,8 C 17,2 C 3,2 km/h (1 Bft)
03.05.2013 14:15 15,8 C 72 % 1015,8 hPa 0,0 l/m 4,7 km/h (1 Bft) W-NW 292 10,8 C 17,1 C 5,5 km/h (1 Bft)
03.05.2013 14:20 15,7 C 73 % 1015,8 hPa 0,0 l/m 5,8 km/h (2 Bft) N 360 10,9 C 17,1 C 8,0 km/h (2 Bft)
03.05.2013 14:25 15,8 C 74 % 1015,6 hPa 0,0 l/m 6,1 km/h (2 Bft) W-NW 292 11,2 C 16,9 C 6,0 km/h (2 Bft)
03.05.2013 14:30 16,0 C 73 % 1015,6 hPa 0,0 l/m 5,8 km/h (2 Bft) W-NW 292 11,2 C 17,1 C 10,1 km/h (2 Bft)
03.05.2013 14:35 15,9 C 72 % 1015,6 hPa 0,0 l/m 5,3 km/h (1 Bft) W-NW 292 10,9 C 17,2 C 5,5 km/h (1 Bft)
03.05.2013 14:40 15,9 C 71 % 1015,6 hPa 0,0 l/m 5,1 km/h (1 Bft) W 270 10,6 C 17,1 C 7,7 km/h (2 Bft)
03.05.2013 14:45 15,5 C 70 % 1015,4 hPa 0,0 l/m 5,8 km/h (2 Bft) W-NW 292 10,1 C 16,7 C 4,3 km/h (1 Bft)
03.05.2013 14:50 15,1 C 71 % 1015,4 hPa 0,0 l/m 5,6 km/h (1 Bft) N-NW 337 9,9 C 16,0 C 6,3 km/h (2 Bft)
03.05.2013 14:55 14,9 C 72 % 1015,4 hPa 0,0 l/m 4,0 km/h (1 Bft) W 270 9,9 C 15,7 C 15,0 km/h (3 Bft)
03.05.2013 15:00 14,8 C 72 % 1015,4 hPa 0,0 l/m 3,7 km/h (1 Bft) W-NW 292 9,8 C 15,3 C 8,4 km/h (2 Bft)
03.05.2013 15:05 14,5 C 73 % 1015,8 hPa 0,0 l/m 4,8 km/h (1 Bft) W 270 9,7 C 15,0 C 7,1 km/h (2 Bft)
03.05.2013 15:10 14,4 C 74 % 1015,8 hPa 0,0 l/m 4,5 km/h (1 Bft) S-SO 157 9,8 C 14,7 C 7,1 km/h (2 Bft)
03.05.2013 15:15 14,1 C 76 % 1015,8 hPa 0,0 l/m 4,0 km/h (1 Bft) S 180 9,9 C 14,5 C 3,1 km/h (1 Bft)
03.05.2013 15:20 12,8 C 82 % 1015,8 hPa 2,1 l/m 3,1 km/h (1 Bft) NO 45 9,8 C 13,8 C 3,2 km/h (1 Bft)
03.05.2013 15:25 11,9 C 85 % 1016,2 hPa 2,1 l/m 2,4 km/h (1 Bft) S-SW 202 9,5 C 12,8 C 2,3 km/h (1 Bft)
03.05.2013 15:30 11,5 C 88 % 1016,2 hPa 4,1 l/m 5,5 km/h (1 Bft) W-NW 292 9,6 C 11,9 C 9,8 km/h (2 Bft)
03.05.2013 15:35 11,6 C 89 % 1016,2 hPa 0,7 l/m 6,6 km/h (2 Bft) N-NW 337 9,8 C 11,2 C 15,9 km/h (3 Bft)
03.05.2013 15:40 11,6 C 91 % 1016,2 hPa 0,0 l/m 6,6 km/h (2 Bft) NO 45 10,2 C 11,1 C 15,1 km/h (3 Bft)
03.05.2013 15:45 11,5 C 92 % 1015,1 hPa 0,0 l/m 7,1 km/h (2 Bft) N-NO 22 10,2 C 10,6 C 5,3 km/h (1 Bft)
03.05.2013 15:50 11,2 C 92 % 1015,1 hPa 0,0 l/m 7,7 km/h (2 Bft) NO 45 9,9 C 9,8 C 7,9 km/h (2 Bft)
03.05.2013 15:55 11,0 C 92 % 1015,1 hPa 0,0 l/m 6,1 km/h (2 Bft) N 360 9,8 C 10,8 C 9,5 km/h (2 Bft)
03.05.2013 16:00 11,2 C 92 % 1015,1 hPa 0,0 l/m 5,3 km/h (1 Bft) SO 135 9,9 C 11,1 C 5,1 km/h (1 Bft)
03.05.2013 16:05 11,2 C 93 % 1015,0 hPa 0,0 l/m 5,6 km/h (1 Bft) O-SO 112 10,1 C 11,0 C 6,0 km/h (2 Bft)
03.05.2013 16:10 11,1 C 93 % 1015,0 hPa 0,0 l/m 4,0 km/h (1 Bft) SO 135 10,0 C 11,3 C 1,6 km/h (1 Bft)
03.05.2013 16:15 11,3 C 93 % 1015,0 hPa 0,0 l/m 2,7 km/h (1 Bft) S 180 10,2 C 11,4 C 1,9 km/h (1 Bft)
03.05.2013 16:20 11,1 C 93 % 1015,0 hPa 0,0 l/m 2,6 km/h (1 Bft) S-SO 157 10,0 C 11,5 C 1,8 km/h (1 Bft)
03.05.2013 16:25 11,1 C 93 % 1015,2 hPa 0,0 l/m 2,9 km/h (1 Bft) O-SO 112 10,0 C 11,6 C 4,7 km/h (1 Bft)
03.05.2013 16:30 11,3 C 93 % 1015,2 hPa 0,0 l/m 1,9 km/h (1 Bft) O-NO 67 10,2 C 11,7 C 0,0 km/h (0 Bft)
03.05.2013 16:35 11,5 C 93 % 1015,2 hPa 0,0 l/m 1,1 km/h (1 Bft) W 270 10,4 C 12,2 C 1,8 km/h (1 Bft)
03.05.2013 16:40 12,2 C 93 % 1015,2 hPa 0,0 l/m 1,1 km/h (1 Bft) O-NO 67 11,1 C 13,4 C 3,1 km/h (1 Bft)
03.05.2013 16:45 12,0 C 93 % 1015,7 hPa 0,0 l/m 1,0 km/h (0 Bft) NO 45 10,9 C 13,7 C 0,0 km/h (0 Bft)
03.05.2013 16:50 12,2 C 93 % 1015,7 hPa 0,0 l/m 0,6 km/h (0 Bft) O 90 11,1 C 14,0 C 0,0 km/h (0 Bft)
03.05.2013 16:55 12,3 C 93 % 1015,7 hPa 0,0 l/m 0,8 km/h (0 Bft) W-SW 247 11,2 C 14,0 C 2,1 km/h (1 Bft)
03.05.2013 17:00 12,5 C 93 % 1015,7 hPa 0,0 l/m 1,1 km/h (1 Bft) S 180 11,4 C 13,9 C 0,0 km/h (0 Bft)
03.05.2013 17:05 12,7 C 93 % 1015,3 hPa 0,0 l/m 1,1 km/h (1 Bft) SO 135 11,6 C 14,3 C 1,6 km/h (1 Bft)
03.05.2013 17:10 13,0 C 92 % 1015,3 hPa 0,0 l/m 1,0 km/h (0 Bft) N-NO 22 11,7 C 14,7 C 0,0 km/h (0 Bft)
03.05.2013 17:15 13,3 C 92 % 1015,3 hPa 0,0 l/m 1,0 km/h (0 Bft) NO 45 12,0 C 16,3 C 0,0 km/h (0 Bft)
03.05.2013 17:20 13,3 C 92 % 1015,3 hPa 0,0 l/m 0,2 km/h (0 Bft) W-NW 292 12,0 C 18,8 C 0,0 km/h (0 Bft)
03.05.2013 17:25 13,5 C 91 % 1015,4 hPa 0,0 l/m 0,5 km/h (0 Bft) W 270 12,1 C 20,3 C 2,3 km/h (1 Bft)
03.05.2013 17:30 13,7 C 91 % 1015,4 hPa 0,0 l/m 1,1 km/h (1 Bft) S-SO 157 12,3 C 21,6 C 5,0 km/h (1 Bft)
03.05.2013 17:35 13,3 C 90 % 1015,4 hPa 0,0 l/m 2,4 km/h (1 Bft) S-SO 157 11,7 C 20,3 C 3,4 km/h (1 Bft)
03.05.2013 17:40 13,0 C 90 % 1015,4 hPa 0,0 l/m 3,7 km/h (1 Bft) W-SW 247 11,4 C 17,5 C 3,5 km/h (1 Bft)
03.05.2013 17:45 13,0 C 90 % 1016,1 hPa 0,0 l/m 2,9 km/h (1 Bft) W 270 11,4 C 16,5 C 4,8 km/h (1 Bft)
03.05.2013 17:50 13,0 C 90 % 1016,1 hPa 0,0 l/m 1,6 km/h (1 Bft) N-NO 22 11,4 C 15,5 C 0,0 km/h (0 Bft)
03.05.2013 17:55 12,9 C 91 % 1016,1 hPa 0,0 l/m 1,8 km/h (1 Bft) W-SW 247 11,5 C 15,1 C 3,7 km/h (1 Bft)
03.05.2013 18:00 12,6 C 91 % 1016,1 hPa 0,0 l/m 2,7 km/h (1 Bft) S-SW 202 11,2 C 14,4 C 4,8 km/h (1 Bft)
03.05.2013 18:05 12,5 C 92 % 1016,4 hPa 0,0 l/m 4,0 km/h (1 Bft) S-SW 202 11,2 C 13,9 C 7,7 km/h (2 Bft)
03.05.2013 18:10 11,2 C 89 % 1016,4 hPa 0,0 l/m 8,2 km/h (2 Bft) S 180 9,5 C 11,4 C 13,8 km/h (3 Bft)
03.05.2013 18:15 10,5 C 89 % 1016,4 hPa 0,7 l/m 11,7 km/h (2 Bft) S-SW 202 8,8 C 7,0 C 22,7 km/h (4 Bft)
03.05.2013 18:20 9,6 C 89 % 1016,4 hPa 0,7 l/m 11,4 km/h (2 Bft) S 180 7,9 C 5,1 C 16,1 km/h (3 Bft)
03.05.2013 18:25 9,6 C 89 % 1016,6 hPa 0,0 l/m 9,3 km/h (2 Bft) S-SO 157 7,9 C 6,2 C 10,8 km/h (2 Bft)
03.05.2013 18:30 9,5 C 90 % 1016,6 hPa 0,0 l/m 7,2 km/h (2 Bft) S 180 7,9 C 7,7 C 10,1 km/h (2 Bft)
03.05.2013 18:35 9,5 C 90 % 1016,6 hPa 0,0 l/m 6,1 km/h (2 Bft) S 180 7,9 C 8,6 C 1,8 km/h (1 Bft)
03.05.2013 18:40 9,5 C 91 % 1016,6 hPa 0,0 l/m 3,5 km/h (1 Bft) S-SO 157 8,1 C 9,3 C 0,0 km/h (0 Bft)
03.05.2013 18:45 9,5 C 92 % 1017,0 hPa 0,0 l/m 3,4 km/h (1 Bft) S 180 8,3 C 9,3 C 10,8 km/h (2 Bft)
03.05.2013 18:50 9,5 C 92 % 1017,0 hPa 0,0 l/m 4,3 km/h (1 Bft) O 90 8,3 C 9,2 C 2,1 km/h (1 Bft)
03.05.2013 18:55 9,6 C 92 % 1017,0 hPa 0,0 l/m 4,5 km/h (1 Bft) S-SO 157 8,4 C 9,2 C 8,7 km/h (2 Bft)
03.05.2013 19:00 9,6 C 93 % 1017,0 hPa 0,7 l/m 5,6 km/h (1 Bft) S 180 8,5 C 8,8 C 8,0 km/h (2 Bft)
03.05.2013 19:05 9,5 C 93 % 1017,1 hPa 0,0 l/m 6,3 km/h (2 Bft) S-SO 157 8,4 C 8,7 C 12,2 km/h (2 Bft)
03.05.2013 19:10 9,5 C 93 % 1017,1 hPa 0,0 l/m 6,3 km/h (2 Bft) O-SO 112 8,4 C 8,7 C 3,5 km/h (1 Bft)
03.05.2013 19:15 9,5 C 93 % 1017,1 hPa 0,0 l/m 6,0 km/h (2 Bft) S 180 8,4 C 8,8 C 6,3 km/h (2 Bft)
03.05.2013 19:20 9,5 C 93 % 1017,1 hPa 0,0 l/m 5,5 km/h (1 Bft) S 180 8,4 C 8,9 C 6,8 km/h (2 Bft)
03.05.2013 19:25 9,5 C 94 % 1017,3 hPa 0,7 l/m 6,1 km/h (2 Bft) O-SO 112 8,6 C 8,6 C 3,1 km/h (1 Bft)
03.05.2013 19:30 9,4 C 94 % 1017,3 hPa 0,0 l/m 6,8 km/h (2 Bft) S 180 8,5 C 8,1 C 8,2 km/h (2 Bft)
03.05.2013 19:35 9,3 C 94 % 1017,3 hPa 0,0 l/m 5,6 km/h (1 Bft) W-NW 292 8,4 C 8,7 C 3,5 km/h (1 Bft)
03.05.2013 19:40 9,3 C 94 % 1017,3 hPa 0,7 l/m 4,5 km/h (1 Bft) S 180 8,4 C 9,1 C 5,3 km/h (1 Bft)
03.05.2013 19:45 9,2 C 94 % 1017,2 hPa 0,0 l/m 3,9 km/h (1 Bft) S 180 8,3 C 9,3 C 3,2 km/h (1 Bft)
03.05.2013 19:50 9,2 C 94 % 1017,2 hPa 0,0 l/m 2,6 km/h (1 Bft) O-SO 112 8,3 C 9,2 C 2,1 km/h (1 Bft)
03.05.2013 19:55 9,1 C 94 % 1017,2 hPa 0,7 l/m 1,9 km/h (1 Bft) O-NO 67 8,2 C 9,2 C 3,5 km/h (1 Bft)
03.05.2013 20:00 9,1 C 94 % 1017,2 hPa 0,0 l/m 2,9 km/h (1 Bft) S-SO 157 8,2 C 9,1 C 3,2 km/h (1 Bft)
03.05.2013 20:05 9,1 C 94 % 1017,1 hPa 0,0 l/m 2,9 km/h (1 Bft) O-SO 112 8,2 C 9,1 C 3,7 km/h (1 Bft)
03.05.2013 20:10 9,1 C 94 % 1017,1 hPa 0,0 l/m 2,9 km/h (1 Bft) SO 135 8,2 C 9,1 C 5,0 km/h (1 Bft)
03.05.2013 20:15 9,1 C 94 % 1017,1 hPa 0,0 l/m 3,7 km/h (1 Bft) S-SO 157 8,2 C 9,1 C 4,5 km/h (1 Bft)
03.05.2013 20:20 9,1 C 94 % 1017,1 hPa 0,7 l/m 4,2 km/h (1 Bft) SO 135 8,2 C 9,0 C 5,0 km/h (1 Bft)
03.05.2013 20:25 9,0 C 94 % 1017,4 hPa 0,7 l/m 4,2 km/h (1 Bft) SO 135 8,1 C 9,0 C 12,4 km/h (3 Bft)
03.05.2013 20:30 9,0 C 94 % 1017,4 hPa 0,0 l/m 5,6 km/h (1 Bft) S-SO 157 8,1 C 8,4 C 10,3 km/h (2 Bft)
03.05.2013 20:35 9,0 C 95 % 1017,4 hPa 0,7 l/m 6,1 km/h (2 Bft) S-SO 157 8,2 C 8,3 C 5,5 km/h (1 Bft)
03.05.2013 20:40 9,0 C 95 % 1017,4 hPa 0,0 l/m 5,3 km/h (1 Bft) S 180 8,2 C 8,5 C 5,1 km/h (1 Bft)
03.05.2013 20:45 9,0 C 95 % 1017,6 hPa 0,7 l/m 5,5 km/h (1 Bft) S-SW 202 8,2 C 8,4 C 4,3 km/h (1 Bft)
03.05.2013 20:50 8,9 C 95 % 1017,6 hPa 0,0 l/m 6,3 km/h (2 Bft) S-SO 157 8,1 C 8,2 C 8,2 km/h (2 Bft)
03.05.2013 20:55 8,9 C 95 % 1017,6 hPa 0,7 l/m 5,5 km/h (1 Bft) SO 135 8,1 C 8,4 C 2,4 km/h (1 Bft)
03.05.2013 21:00 8,8 C 95 % 1017,6 hPa 0,7 l/m 4,2 km/h (1 Bft) S 180 8,0 C 8,7 C 4,0 km/h (1 Bft)
03.05.2013 21:05 8,7 C 95 % 1017,8 hPa 0,0 l/m 3,2 km/h (1 Bft) SO 135 7,9 C 8,8 C 5,3 km/h (1 Bft)
03.05.2013 21:10 8,6 C 95 % 1017,8 hPa 0,0 l/m 2,7 km/h (1 Bft) O-SO 112 7,8 C 8,6 C 2,7 km/h (1 Bft)
03.05.2013 21:15 8,5 C 95 % 1017,8 hPa 0,0 l/m 2,6 km/h (1 Bft) SO 135 7,7 C 8,6 C 1,8 km/h (1 Bft)
03.05.2013 21:20 8,5 C 95 % 1017,8 hPa 0,0 l/m 1,1 km/h (1 Bft) O-SO 112 7,7 C 8,5 C 1,9 km/h (1 Bft)
03.05.2013 21:25 8,5 C 95 % 1017,9 hPa 0,0 l/m 1,3 km/h (1 Bft) SO 135 7,7 C 8,4 C 6,9 km/h (2 Bft)
03.05.2013 21:30 8,5 C 95 % 1017,9 hPa 0,0 l/m 1,9 km/h (1 Bft) O-SO 112 7,7 C 8,5 C 3,1 km/h (1 Bft)
03.05.2013 21:35 8,5 C 95 % 1017,9 hPa 0,0 l/m 1,9 km/h (1 Bft) O 90 7,7 C 8,5 C 0,0 km/h (0 Bft)
03.05.2013 21:40 8,5 C 95 % 1017,9 hPa 0,0 l/m 1,4 km/h (1 Bft) O 90 7,7 C 8,5 C 3,4 km/h (1 Bft)
03.05.2013 21:45 8,4 C 95 % 1018,1 hPa 0,0 l/m 1,6 km/h (1 Bft) NO 45 7,6 C 8,5 C 2,3 km/h (1 Bft)
03.05.2013 21:50 8,4 C 95 % 1018,1 hPa 0,0 l/m 1,9 km/h (1 Bft) O 90 7,6 C 8,4 C 1,8 km/h (1 Bft)
03.05.2013 21:55 8,3 C 95 % 1018,1 hPa 0,0 l/m 1,8 km/h (1 Bft) N-NO 22 7,5 C 8,4 C 2,7 km/h (1 Bft)
03.05.2013 22:00 8,2 C 95 % 1018,1 hPa 0,0 l/m 1,1 km/h (1 Bft) O-NO 67 7,4 C 8,3 C 0,0 km/h (0 Bft)
03.05.2013 22:05 8,1 C 95 % 1018,0 hPa 0,0 l/m 0,8 km/h (0 Bft) S-SO 157 7,3 C 8,1 C 0,0 km/h (0 Bft)
03.05.2013 22:10 7,9 C 95 % 1018,0 hPa 0,0 l/m 0,3 km/h (0 Bft) W-SW 247 7,1 C 7,9 C 0,0 km/h (0 Bft)
03.05.2013 22:15 7,8 C 95 % 1018,0 hPa 0,0 l/m 0,2 km/h (0 Bft) S 180 7,0 C 7,7 C 0,0 km/h (0 Bft)
03.05.2013 22:20 7,8 C 95 % 1018,0 hPa 0,0 l/m 0,6 km/h (0 Bft) NO 45 7,0 C 7,7 C 0,0 km/h (0 Bft)
03.05.2013 22:25 7,8 C 95 % 1017,9 hPa 0,0 l/m 0,5 km/h (0 Bft) S 180 7,0 C 7,7 C 0,0 km/h (0 Bft)
03.05.2013 22:30 7,7 C 95 % 1017,9 hPa 0,0 l/m 0,0 km/h (0 Bft) S-SO 157 7,0 C 7,6 C 0,0 km/h (0 Bft)
03.05.2013 22:35 7,8 C 95 % 1017,9 hPa 0,0 l/m 0,2 km/h (0 Bft) O-SO 112 7,0 C 7,6 C 0,0 km/h (0 Bft)
03.05.2013 22:40 7,7 C 96 % 1017,9 hPa 0,0 l/m 1,1 km/h (1 Bft) NO 45 7,1 C 7,6 C 2,1 km/h (1 Bft)
03.05.2013 22:45 7,8 C 96 % 1017,9 hPa 0,0 l/m 1,6 km/h (1 Bft) O-NO 67 7,2 C 7,6 C 3,4 km/h (1 Bft)
03.05.2013 22:50 7,6 C 96 % 1017,9 hPa 0,0 l/m 2,1 km/h (1 Bft) NO 45 7,0 C 7,5 C 4,0 km/h (1 Bft)
03.05.2013 22:55 7,5 C 96 % 1017,9 hPa 0,0 l/m 2,3 km/h (1 Bft) NO 45 6,9 C 7,4 C 3,1 km/h (1 Bft)
03.05.2013 23:00 7,4 C 95 % 1017,9 hPa 0,0 l/m 1,3 km/h (1 Bft) N-NO 22 6,7 C 7,4 C 2,1 km/h (1 Bft)
03.05.2013 23:05 7,5 C 96 % 1017,9 hPa 0,0 l/m 1,3 km/h (1 Bft) O-SO 112 6,9 C 7,4 C 1,8 km/h (1 Bft)
03.05.2013 23:10 7,5 C 96 % 1017,9 hPa 0,0 l/m 1,1 km/h (1 Bft) NO 45 6,9 C 7,4 C 0,0 km/h (0 Bft)
03.05.2013 23:15 7,5 C 96 % 1017,9 hPa 0,0 l/m 0,6 km/h (0 Bft) O-NO 67 6,9 C 7,4 C 2,9 km/h (1 Bft)
03.05.2013 23:20 7,5 C 96 % 1017,9 hPa 0,0 l/m 0,5 km/h (0 Bft) O-NO 67 6,9 C 7,4 C 1,9 km/h (1 Bft)
03.05.2013 23:25 7,5 C 96 % 1017,8 hPa 0,0 l/m 0,6 km/h (0 Bft) O-NO 67 6,9 C 7,4 C 0,0 km/h (0 Bft)
03.05.2013 23:30 7,5 C 96 % 1017,8 hPa 0,0 l/m 0,3 km/h (0 Bft) NO 45 6,9 C 7,4 C 1,6 km/h (1 Bft)
03.05.2013 23:35 7,5 C 96 % 1017,8 hPa 0,0 l/m 0,3 km/h (0 Bft) NO 45 6,9 C 7,4 C 0,0 km/h (0 Bft)
03.05.2013 23:40 7,5 C 96 % 1017,8 hPa 0,0 l/m 0,3 km/h (0 Bft) N 360 6,9 C 7,5 C 0,0 km/h (0 Bft)
03.05.2013 23:45 7,6 C 96 % 1017,6 hPa 0,0 l/m 0,2 km/h (0 Bft) O 90 7,0 C 7,5 C 0,0 km/h (0 Bft)
03.05.2013 23:50 7,5 C 96 % 1017,6 hPa 0,0 l/m 0,3 km/h (0 Bft) NO 45 6,9 C 7,5 C 0,0 km/h (0 Bft)
03.05.2013 23:55 7,5 C 96 % 1017,6 hPa 0,0 l/m 0,0 km/h (0 Bft) NW 315 6,9 C 7,4 C 0,0 km/h (0 Bft)
_ Min-Zeit 23:00 12:10 16:20 - 23:55 - - 23:00 18:20 23:55
Minimum _ 7,4 C 69 % 1015,0 hPa - 0,0 km/h (0 Bft) - - 6,7 C 5,1 C 0,0 km/h (0 Bft)
_ Max-Zeit 13:45 23:55 22:00 15:30 18:15 - - 17:30 17:30 18:15
Maximum _ 16,1 C 96 % 1018,1 hPa 4,1 l/m 11,7 km/h
S-SW (2 Bft)
- - 12,3 C 21,6 C 22,7 km/h
S-SW (4 Bft)
Durchschnitt _ 10,8 C 90 % 1016,7 hPa #19,9 l/m 3,3 km/h (1 Bft) W-NW - 9,1 C 11,3 C 4,1 km/h (1 Bft)